Aeroporto :
LOGIN :

Iscrizione | Disclaimer

   EN    FR    IT 

 










Sommario :    VFR   VFR Marginale   IFR   IFR Intensivo   IFR Molto Intensivo
Visibilità : 
Base nubi : 
>= 8 km
>= 3000ft
5 / 8 km
1000 / 3000 ft
1500m / 5 km
500 / 1000 ft
800 / 1500m
200 / 500 ft
< 800m
< 200 ft
Simboli :   Temporali  Nebbia  Neve Forte  Precipitazioni Forti  Vento > 20 kt
SIGMETs :   Varie  Temporali  Ghiacco  Turbolenza  Onda orograficha  Ceneri Vulcaniche






- Altitudine del aeroporto : 466 ft


LHPA - Pápa

ULTIMO METAR :
  • 180045Z 11004KT CAVOK 12/09 Q1009 NOSIG RMK BLU

METARs OBSOLETI :
  • 180015Z 11006KT 080V150 CAVOK 12/09 Q1009 TEMPO -RA RMK BLU
  • 172345Z 12008KT CAVOK 12/08 Q1009 TEMPO -RA RMK BLU
  • 172315Z 00000KT CAVOK 12/08 Q1009 NOSIG RMK BLU
  • 172245Z 23006KT 170V250 CAVOK 12/08 Q1009 TEMPO -RA RMK BLU
  • 172215Z 35002KT CAVOK 13/08 Q1009 TEMPO -RA RMK BLU

TAF TAF LHPA
Valido dal 18 a 00 ore il 19 a 00 ore UTC


172315Z 1800/1824 14008KT CAVOK
BECMG 1800/1803 9999 SCT040 BKN083
TEMPO 1800/1809 8000 RA FEW010 BKN030 OVC083
TEMPO 1800/1803 13014G24KT
BECMG 1809/1811 20012KT CAVOK



MetMap, La meteo Aeronautica in un colpo d'occhio ! - Copyright ORBIFLY Dicembre 2007 - Disclaimer

ORBIFLY MET'MAP TEAM :

Programmazione e sviluppo : Alexandra Zaïnal
Concezione e sviluppo : Baudouin d'Aumeries
Co-Programmazione e sviluppo : Marc-Olivier Méhu
Supporto tecnico e logistico : Manuel Goepfert
Aiuto per la traduzione : Arnaldo La Scala

Contatto : metmap@orbifly.com




FONTI E CREDITI :

   NOAA